Yigo, Guam
Current Conditions -  °F | °C
As of 2:24 AM on Saturday 22 Nov 2014 (Local Time) from PGUA Reporting Station
Broken Clouds Broken Clouds  
Wind Chill: 25°   Ceiling: 2300
Heat Index: 26°   Visibility: 9mi
Dew Point: 24°   Wind: 14mph
Humidity: 94%   Direction: 80°E
Pressure: 29.9"   Gusts: NA
Location:  13.53°N, 144.89°E
Report Text: PGUA 211624Z AUTO 08012KT 9SM FEW002 BKN023 BKN029 25/24 A2990 RMK AO2 RAB1600E1625DZE1557 $
Loading
Personal Weather Stations






























Interactive Weather Map New forecast layout! Learn more

10-Day Weather Forecast

Advertisements
Track Severe Weather on mobile